Time;durP1;ratioP1;P1;durP2;ratioP2;P2;SDS_P1;SDS_P2;PMS_P1;PMS_P2;Temp;Humidity;BMP_temperature;BMP_pressure;BME280_temperature;BME280_humidity;BME280_pressure;Samples;Min_cycle;Max_cycle;Signal;HPM_P1;HPM_P2
2023/06/04 00:00:27;;;;;;;10.43;6.32;;;;;;;16.02;82.53;94095.28;5144572;27;20019;-80
2023/06/04 00:02:52;;;;;;;10.60;6.53;;;;;;;16.00;83.15;94094.06;5144316;27;20019;-80
2023/06/04 00:05:18;;;;;;;8.82;6.78;;;;;;;15.95;83.29;94094.28;5144374;27;20019;-80
2023/06/04 00:07:43;;;;;;;11.93;6.05;;;;;;;15.90;83.59;94092.63;5126014;27;20015;-79
2023/06/04 00:10:09;;;;;;;14.23;8.15;;;;;;;15.95;83.74;94088.91;5144381;27;20082;-80
2023/06/04 00:12:35;;;;;;;14.20;7.32;;;;;;;15.95;83.83;94091.59;5144253;27;20051;-80
2023/06/04 00:15:01;;;;;;;11.57;8.15;;;;;;;15.93;84.14;94096.53;5144243;27;20023;-80
2023/06/04 00:17:26;;;;;;;13.10;8.60;;;;;;;15.91;83.87;94091.50;5143987;27;20034;-80
2023/06/04 00:19:52;;;;;;;12.32;8.10;;;;;;;15.90;84.35;94098.00;5144136;27;20090;-80
2023/06/04 00:22:17;;;;;;;18.40;8.93;;;;;;;15.97;84.14;94092.03;5143893;27;20364;-80
2023/06/04 00:24:43;;;;;;;14.15;9.32;;;;;;;16.00;84.06;94086.00;5144085;27;20317;-80
2023/06/04 00:27:09;;;;;;;13.82;9.35;;;;;;;16.04;84.42;94093.03;5143946;27;20030;-80
2023/06/04 00:29:35;;;;;;;19.00;10.45;;;;;;;16.03;83.95;94083.38;5125594;27;20019;-80
2023/06/04 00:32:00;;;;;;;12.77;8.95;;;;;;;16.06;83.47;94090.00;5143946;27;20102;-80
2023/06/04 00:34:26;;;;;;;26.10;10.32;;;;;;;16.10;83.83;94087.38;5143937;27;20325;-80
2023/06/04 00:36:51;;;;;;;17.83;11.50;;;;;;;16.10;83.55;94085.50;5143924;27;20038;-80
2023/06/04 00:39:17;;;;;;;17.95;11.05;;;;;;;16.14;83.19;94081.00;5125228;27;20023;-80
2023/06/04 00:41:42;;;;;;;18.02;11.27;;;;;;;16.15;82.94;94084.47;5143721;27;20209;-80
2023/06/04 00:44:08;;;;;;;20.38;11.35;;;;;;;16.15;82.81;94074.50;5143650;27;20295;-80
2023/06/04 00:46:35;;;;;;;17.95;11.25;;;;;;;16.17;83.28;94083.00;5143984;27;20054;-80
2023/06/04 00:49:01;;;;;;;23.77;11.43;;;;;;;16.20;83.84;94076.16;5143831;27;20015;-79
2023/06/04 00:51:30;;;;;;;18.05;12.85;;;;;;;16.20;83.32;94085.00;5143476;27;20233;-80
2023/06/04 00:53:56;;;;;;;15.95;11.05;;;;;;;16.19;82.96;94079.97;5143564;27;20019;-80
2023/06/04 00:56:21;;;;;;;17.75;11.10;;;;;;;16.20;83.29;94068.88;5143561;28;20090;-80
2023/06/04 00:58:47;;;;;;;16.92;11.85;;;;;;;16.21;83.26;94075.81;5143566;28;20086;-79
2023/06/04 01:01:19;;;;;;;18.45;12.77;;;;;;;16.25;83.16;94081.28;5143678;27;20034;-80
2023/06/04 01:03:49;;;;;;;17.65;11.60;;;;;;;16.25;82.66;94078.59;5146874;27;20039;-79
2023/06/04 01:06:35;;;;;;;21.35;13.57;;;;;;;16.25;82.54;94078.59;5147729;27;20023;-79
2023/06/04 01:09:01;;;;;;;19.40;13.60;;;;;;;16.23;82.28;94081.63;5147889;27;20019;-79
2023/06/04 01:11:35;;;;;;;17.80;12.45;;;;;;;16.25;82.71;94082.06;5147758;27;20027;-79
2023/06/04 01:14:02;;;;;;;17.33;12.20;;;;;;;16.25;82.97;94084.75;5147833;27;20324;-79
2023/06/04 01:16:34;;;;;;;20.83;12.32;;;;;;;16.21;82.87;94083.88;5147575;27;20215;-79
2023/06/04 01:19:04;;;;;;;22.30;12.70;;;;;;;16.22;83.02;94076.59;5147806;27;20088;-79
2023/06/04 01:21:35;;;;;;;16.35;10.65;;;;;;;16.25;83.08;94076.69;5147660;27;20015;-79
2023/06/04 01:24:04;;;;;;;19.05;10.85;;;;;;;16.30;82.98;94080.25;5147492;27;20035;-82
2023/06/04 01:26:31;;;;;;;14.38;9.18;;;;;;;16.34;83.04;94081.13;5147496;27;20015;-82
2023/06/04 01:28:58;;;;;;;13.02;7.80;;;;;;;16.37;83.00;94081.22;5147270;27;20019;-82
2023/06/04 01:31:25;;;;;;;16.58;8.50;;;;;;;16.39;82.68;94083.59;5147350;27;20027;-82
2023/06/04 01:33:57;;;;;;;14.48;7.30;;;;;;;16.44;82.53;94086.00;5147339;27;20023;-81
2023/06/04 01:36:23;;;;;;;9.05;5.13;;;;;;;16.44;82.16;94084.13;5147263;27;20090;-81
2023/06/04 01:38:48;;;;;;;10.07;5.10;;;;;;;16.43;81.79;94090.63;5128830;27;20038;-81
2023/06/04 01:41:14;;;;;;;6.88;4.13;;;;;;;16.47;81.53;94085.34;5147105;27;20023;-81
2023/06/04 01:43:39;;;;;;;7.43;4.43;;;;;;;16.50;80.85;94084.63;5147044;27;20030;-81
2023/06/04 01:46:05;;;;;;;5.53;4.07;;;;;;;16.52;80.72;94097.75;5147391;27;20019;-81
2023/06/04 01:48:31;;;;;;;11.35;5.30;;;;;;;16.53;80.85;94089.34;5147040;27;20071;-81
2023/06/04 01:50:57;;;;;;;8.85;4.38;;;;;;;16.54;80.67;94096.28;5146896;27;20038;-81
2023/06/04 01:53:23;;;;;;;7.85;5.32;;;;;;;16.49;81.34;94093.84;5146985;27;20091;-81
2023/06/04 01:55:49;;;;;;;9.18;5.63;;;;;;;16.54;82.00;94101.66;5128507;27;20023;-82
2023/06/04 01:58:22;;;;;;;11.02;5.30;;;;;;;16.57;82.07;94100.19;5146518;27;20019;-81
2023/06/04 02:00:49;;;;;;;11.27;6.82;;;;;;;16.55;82.59;94107.84;5146904;27;20086;-81
2023/06/04 02:03:15;;;;;;;15.60;6.82;;;;;;;16.54;83.09;94106.25;5146576;27;20356;-81
2023/06/04 02:05:41;;;;;;;10.93;6.68;;;;;;;16.53;83.36;94108.19;5146824;27;20082;-82
2023/06/04 02:08:06;;;;;;;14.13;6.70;;;;;;;16.56;83.88;94106.69;5146807;27;20019;-83
2023/06/04 02:10:31;;;;;;;10.35;7.10;;;;;;;16.56;84.36;94110.16;5128368;27;20026;-82
2023/06/04 02:13:02;;;;;;;7.82;6.13;;;;;;;16.57;83.93;94106.34;5127542;27;20031;-81
2023/06/04 02:15:29;;;;;;;6.40;5.05;;;;;;;16.57;83.90;94106.34;5146554;27;20397;-81
2023/06/04 02:17:59;;;;;;;8.90;5.40;;;;;;;16.60;83.17;94116.41;5146658;27;20251;-81
2023/06/04 02:20:27;;;;;;;8.35;5.40;;;;;;;16.59;83.11;94119.47;5146447;27;20094;-82
2023/06/04 02:22:55;;;;;;;9.32;5.95;;;;;;;16.59;83.28;94108.72;5146234;27;20035;-82
2023/06/04 02:25:21;;;;;;;8.52;4.85;;;;;;;16.61;82.97;94118.00;5127917;27;20029;-81
2023/06/04 02:27:46;;;;;;;5.80;3.78;;;;;;;16.57;82.10;94122.50;5146075;27;20340;-81
2023/06/04 02:30:12;;;;;;;6.15;4.53;;;;;;;16.56;81.42;94126.31;5146309;27;20015;-82
2023/06/04 02:32:39;;;;;;;4.53;3.05;;;;;;;16.54;80.99;94130.47;5146244;27;20098;-81
2023/06/04 02:35:04;;;;;;;5.10;2.92;;;;;;;16.53;80.93;94126.22;5146232;27;20022;-81
2023/06/04 02:37:36;;;;;;;5.18;2.85;;;;;;;16.55;80.36;94132.81;5127498;27;20107;-81
2023/06/04 02:40:01;;;;;;;8.25;2.88;;;;;;;16.51;80.33;94134.63;5144543;27;20344;-81
2023/06/04 02:42:27;;;;;;;10.23;3.80;;;;;;;16.52;80.32;94133.50;5145681;27;20019;-81
2023/06/04 02:44:52;;;;;;;4.63;2.25;;;;;;;16.52;80.08;94135.41;5126292;27;20336;-82
2023/06/04 02:47:19;;;;;;;4.75;2.60;;;;;;;16.52;80.10;94136.19;5145870;27;20026;-81
2023/06/04 02:49:46;;;;;;;5.25;2.45;;;;;;;16.47;79.85;94139.13;5127312;27;20015;-82
2023/06/04 02:52:11;;;;;;;3.78;2.40;;;;;;;16.51;79.70;94134.63;5127480;27;20019;-82
2023/06/04 02:54:37;;;;;;;5.28;2.45;;;;;;;16.50;79.64;94143.81;5127372;27;20034;-81
2023/06/04 02:57:03;;;;;;;7.30;2.55;;;;;;;16.50;79.76;94148.44;5145931;27;20026;-81
2023/06/04 02:59:28;;;;;;;6.85;2.67;;;;;;;16.48;79.73;94143.38;5145790;27;20218;-81
2023/06/04 03:01:54;;;;;;;3.83;2.42;;;;;;;16.48;79.70;94151.47;5145802;27;20384;-81
2023/06/04 03:04:20;;;;;;;4.35;2.75;;;;;;;16.47;79.95;94149.91;5127057;27;20050;-80
2023/06/04 03:06:46;;;;;;;5.10;2.65;;;;;;;16.48;80.37;94146.06;5145453;27;20019;-81
2023/06/04 03:09:12;;;;;;;8.13;3.63;;;;;;;16.48;80.50;94151.47;5145270;27;20021;-81
2023/06/04 03:11:37;;;;;;;3.85;2.50;;;;;;;16.44;80.28;94150.56;5127167;27;20205;-80
2023/06/04 03:14:03;;;;;;;4.82;2.95;;;;;;;16.45;80.65;94152.16;5145939;27;20019;-81
2023/06/04 03:16:28;;;;;;;6.82;2.42;;;;;;;16.44;80.40;94142.50;5145454;27;20043;-81
2023/06/04 03:18:54;;;;;;;4.65;2.85;;;;;;;16.44;80.08;94145.19;5145225;27;20031;-81
2023/06/04 03:21:19;;;;;;;4.63;2.72;;;;;;;16.42;80.32;94150.94;5145472;27;20094;-81
2023/06/04 03:23:45;;;;;;;4.50;2.25;;;;;;;16.42;79.95;94153.63;5126827;27;20042;-80
2023/06/04 03:26:12;;;;;;;5.90;2.58;;;;;;;16.46;79.95;94148.31;5144473;27;20209;-80
2023/06/04 03:28:38;;;;;;;4.75;2.65;;;;;;;16.48;80.00;94150.69;5144968;27;20019;-80
2023/06/04 03:31:03;;;;;;;5.55;2.67;;;;;;;16.45;80.11;94154.84;5145367;27;20042;-80
2023/06/04 03:33:29;;;;;;;5.97;2.05;;;;;;;16.45;80.06;94160.22;5145110;27;20246;-80
2023/06/04 03:35:58;;;;;;;7.32;2.70;;;;;;;16.41;79.86;94165.50;5145014;27;20254;-80
2023/06/04 03:38:24;;;;;;;4.70;3.17;;;;;;;16.42;79.89;94159.00;5144771;27;20313;-81
2023/06/04 03:40:52;;;;;;;4.15;2.33;;;;;;;16.47;79.97;94170.66;5145053;27;20086;-81
2023/06/04 03:43:18;;;;;;;4.75;2.80;;;;;;;16.45;79.71;94171.00;5145115;27;20022;-81
2023/06/04 03:45:43;;;;;;;5.93;2.97;;;;;;;16.41;80.01;94168.19;5144628;27;20015;-79
2023/06/04 03:48:09;;;;;;;5.95;2.60;;;;;;;16.42;79.76;94168.97;5144714;27;20329;-79
2023/06/04 03:50:35;;;;;;;8.68;3.20;;;;;;;16.40;80.01;94171.22;5145038;27;20205;-79
2023/06/04 03:53:00;;;;;;;6.78;2.30;;;;;;;16.41;80.16;94168.19;5144632;27;20029;-80
2023/06/04 03:55:26;;;;;;;4.18;2.20;;;;;;;16.42;80.35;94174.34;5144749;27;20329;-80
2023/06/04 03:57:52;;;;;;;4.00;2.35;;;;;;;16.43;80.25;94176.69;5144621;27;20034;-80
2023/06/04 04:00:18;;;;;;;11.30;2.72;;;;;;;16.43;80.33;94175.94;5144512;27;20332;-80
2023/06/04 04:02:43;;;;;;;5.72;2.42;;;;;;;16.45;80.63;94179.84;5144446;27;20023;-79
2023/06/04 04:05:10;;;;;;;3.80;2.33;;;;;;;16.47;80.61;94173.34;5144242;27;20080;-78
2023/06/04 04:07:36;;;;;;;10.23;3.15;;;;;;;16.47;80.78;94179.50;5144452;27;20080;-78
2023/06/04 04:10:02;;;;;;;4.00;2.72;;;;;;;16.50;80.73;94180.72;5144307;27;20093;-79
2023/06/04 04:12:27;;;;;;;4.28;2.22;;;;;;;16.49;80.55;94179.16;5144187;27;20095;-79
2023/06/04 04:14:53;;;;;;;5.75;2.55;;;;;;;16.48;80.75;94182.97;5144364;27;20022;-78
2023/06/04 04:17:18;;;;;;;4.90;2.50;;;;;;;16.50;80.56;94181.50;5144075;27;20299;-79
2023/06/04 04:19:44;;;;;;;6.03;3.00;;;;;;;16.52;80.57;94189.22;5144069;27;20023;-78
2023/06/04 04:22:12;;;;;;;5.15;2.63;;;;;;;16.55;80.84;94193.94;5143514;27;20019;-78
2023/06/04 04:24:39;;;;;;;3.75;2.75;;;;;;;16.57;80.75;94189.78;5143904;27;20015;-79
2023/06/04 04:27:05;;;;;;;6.93;2.90;;;;;;;16.62;80.61;94189.50;5144184;27;20031;-79
2023/06/04 04:29:34;;;;;;;4.72;2.53;;;;;;;16.66;80.63;94189.63;5144006;27;20330;-81
2023/06/04 04:32:01;;;;;;;10.30;3.45;;;;;;;16.65;80.54;94186.16;5143957;27;20033;-85
2023/06/04 04:34:27;;;;;;;5.97;3.28;;;;;;;16.64;80.08;94198.03;5143744;27;20208;-80
2023/06/04 04:36:52;;;;;;;8.43;4.35;;;;;;;16.64;80.23;94189.19;5143494;27;20027;-79
2023/06/04 04:39:24;;;;;;;8.27;2.63;;;;;;;16.63;80.71;94196.47;5143432;27;20023;-79
2023/06/04 04:41:51;;;;;;;7.93;3.03;;;;;;;16.65;80.22;94188.84;5143613;27;20022;-79
2023/06/04 04:44:16;;;;;;;9.13;3.13;;;;;;;16.68;80.36;94191.97;5125480;27;20218;-81
2023/06/04 04:46:41;;;;;;;5.63;3.60;;;;;;;16.71;80.17;94196.66;5143699;27;20026;-81
2023/06/04 04:49:07;;;;;;;8.63;3.38;;;;;;;16.75;80.34;94192.94;5125340;27;20309;-80
2023/06/04 04:51:32;;;;;;;9.10;3.20;;;;;;;16.83;79.77;94188.56;5143680;27;20068;-81
2023/06/04 04:54:01;;;;;;;6.55;3.42;;;;;;;16.87;79.67;94188.66;5143715;27;20015;-81
2023/06/04 04:56:27;;;;;;;7.40;3.25;;;;;;;16.93;78.94;94188.03;5143665;27;20050;-80
2023/06/04 04:58:54;;;;;;;6.72;3.80;;;;;;;16.96;78.84;94192.75;5143671;28;20071;-81
2023/06/04 05:01:20;;;;;;;6.30;3.35;;;;;;;17.03;78.61;94198.31;5125157;28;20217;-82
2023/06/04 05:03:46;;;;;;;5.70;3.00;;;;;;;17.07;78.87;94203.78;5125212;28;20309;-81
2023/06/04 05:06:11;;;;;;;10.85;3.25;;;;;;;17.12;77.91;94200.09;5143447;28;20019;-80
2023/06/04 05:08:37;;;;;;;6.25;3.63;;;;;;;17.17;77.95;94200.59;5143458;28;20343;-79
2023/06/04 05:11:02;;;;;;;7.97;2.95;;;;;;;17.22;77.48;94197.66;5143498;28;20038;-82
2023/06/04 05:13:28;;;;;;;6.93;3.65;;;;;;;17.35;77.88;94206.44;5143419;28;20305;-82
2023/06/04 05:15:53;;;;;;;9.48;3.45;;;;;;;17.49;76.87;94202.53;5143489;28;20025;-82
2023/06/04 05:18:28;;;;;;;11.52;4.25;;;;;;;17.60;76.31;94208.94;5143286;28;20041;-82
2023/06/04 05:20:54;;;;;;;5.88;3.55;;;;;;;17.64;75.84;94209.81;5143274;28;20022;-78
2023/06/04 05:23:20;;;;;;;9.18;3.90;;;;;;;17.77;75.55;94205.13;5143137;28;20039;-77
2023/06/04 05:26:25;;;;;;;8.43;3.88;;;;;;;17.88;74.96;94205.41;5125093;28;20305;-83
2023/06/04 05:28:51;;;;;;;11.23;4.05;;;;;;;17.98;74.38;94207.56;5142368;28;20038;-83
2023/06/04 05:31:18;;;;;;;7.70;4.50;;;;;;;18.08;73.09;94208.94;5143296;28;20023;-83
2023/06/04 05:33:43;;;;;;;9.93;4.25;;;;;;;18.11;72.67;94209.00;5143316;28;20143;-83
2023/06/04 05:36:09;;;;;;;10.55;4.55;;;;;;;18.21;72.61;94205.75;5143406;28;20022;-83
2023/06/04 05:38:35;;;;;;;14.10;4.53;;;;;;;18.25;72.41;94201.19;5143228;28;20033;-83
2023/06/04 05:41:01;;;;;;;5.43;3.78;;;;;;;18.36;72.25;94212.25;5124784;28;20057;-82
2023/06/04 05:43:27;;;;;;;12.43;4.13;;;;;;;18.48;71.36;94216.72;5143130;28;20083;-83
2023/06/04 05:45:52;;;;;;;10.32;3.67;;;;;;;18.58;70.75;94224.25;5143040;28;20269;-84
2023/06/04 05:48:18;;;;;;;8.02;4.70;;;;;;;18.62;70.00;94217.03;5143558;27;20030;-85
2023/06/04 05:50:44;;;;;;;6.25;4.20;;;;;;;18.61;70.13;94228.94;5128673;27;20026;-86
2023/06/04 05:53:10;;;;;;;16.17;4.57;;;;;;;18.66;70.23;94219.78;5146939;27;20059;-83
2023/06/04 05:55:36;;;;;;;7.43;5.03;;;;;;;18.67;70.15;94231.38;5147362;27;20022;-85
2023/06/04 05:58:01;;;;;;;9.00;5.00;;;;;;;18.62;69.93;94233.22;5146720;27;20053;-82
2023/06/04 06:00:27;;;;;;;10.52;4.25;;;;;;;18.68;69.43;94233.69;5146427;27;20035;-82
2023/06/04 06:02:53;;;;;;;7.65;4.80;;;;;;;18.70;69.46;94236.81;5146664;27;20080;-81
2023/06/04 06:05:19;;;;;;;10.50;4.85;;;;;;;18.75;69.44;94244.66;5128049;27;20101;-82
2023/06/04 06:07:45;;;;;;;8.32;5.13;;;;;;;18.73;69.61;94246.16;5146590;27;20031;-82
2023/06/04 06:10:11;;;;;;;8.63;4.43;;;;;;;18.78;70.05;94248.56;5128134;27;20019;-81
2023/06/04 06:12:37;;;;;;;10.30;5.00;;;;;;;18.82;69.53;94242.09;5128157;27;20234;-82
2023/06/04 06:15:03;;;;;;;10.98;4.93;;;;;;;18.88;69.78;94239.13;5146597;27;20023;-82
2023/06/04 06:17:28;;;;;;;8.68;4.85;;;;;;;18.90;69.84;94247.66;5128002;27;20305;-82
2023/06/04 06:19:55;;;;;;;9.50;5.07;;;;;;;18.94;69.55;94248.50;5146466;27;20377;-84
2023/06/04 06:22:20;;;;;;;17.38;5.85;;;;;;;18.91;68.50;94241.91;5146196;27;20086;-83
2023/06/04 06:24:48;;;;;;;10.48;4.95;;;;;;;18.88;68.68;94249.94;5146317;27;20018;-82
2023/06/04 06:27:15;;;;;;;9.25;5.18;;;;;;;18.93;68.67;94244.22;5146338;27;20030;-82
2023/06/04 06:29:40;;;;;;;13.07;5.93;;;;;;;18.86;68.34;94244.88;5146158;27;20209;-82
2023/06/04 06:32:06;;;;;;;15.80;5.47;;;;;;;18.82;69.38;94238.63;5146362;27;20029;-82
2023/06/04 06:34:31;;;;;;;7.72;4.75;;;;;;;18.86;69.73;94241.41;5146167;27;20034;-82
2023/06/04 06:36:57;;;;;;;11.77;5.43;;;;;;;18.94;68.94;94246.59;5146115;27;20057;-83
2023/06/04 06:39:22;;;;;;;9.23;4.72;;;;;;;19.02;68.13;94247.50;5145557;27;20418;-83
2023/06/04 06:41:48;;;;;;;12.80;4.95;;;;;;;19.07;67.86;94249.13;5145946;27;20086;-82
2023/06/04 06:44:13;;;;;;;10.27;4.95;;;;;;;19.08;67.64;94258.81;5127557;27;20019;-82
2023/06/04 06:46:39;;;;;;;11.15;5.47;;;;;;;19.17;67.47;94243.16;5145919;27;20015;-82
2023/06/04 06:49:08;;;;;;;9.77;4.43;;;;;;;19.25;67.09;94250.25;5127591;27;20221;-85
2023/06/04 06:51:33;;;;;;;8.95;4.85;;;;;;;19.29;67.24;94255.72;5146789;27;20018;-90
2023/06/04 06:53:59;;;;;;;7.82;4.80;;;;;;;19.42;66.88;94249.03;5128227;27;20099;-87
2023/06/04 06:56:24;;;;;;;14.10;4.78;;;;;;;19.58;66.37;94251.59;5127364;27;20075;-87
2023/06/04 06:58:51;;;;;;;11.70;5.25;;;;;;;19.75;65.95;94251.16;5145829;27;20419;-84
2023/06/04 07:01:16;;;;;;;9.52;4.30;;;;;;;19.89;65.19;94252.53;5126096;27;20198;-85
2023/06/04 07:03:42;;;;;;;11.77;4.07;;;;;;;19.97;64.75;94256.91;5127250;27;20026;-87
2023/06/04 07:06:07;;;;;;;14.43;4.93;;;;;;;19.86;63.82;94253.25;5145695;27;20019;-89
2023/06/04 07:08:33;;;;;;;9.90;4.35;;;;;;;19.95;63.58;94270.00;5146227;27;20015;-83
2023/06/04 07:11:01;;;;;;;8.77;4.10;;;;;;;20.01;63.60;94268.56;5145195;27;20204;-82
2023/06/04 07:13:27;;;;;;;5.70;4.13;;;;;;;20.09;64.32;94259.41;5127194;27;20356;-83
2023/06/04 07:15:53;;;;;;;10.85;4.47;;;;;;;20.26;64.20;94268.16;5126827;27;20014;-82
2023/06/04 07:18:18;;;;;;;6.15;4.25;;;;;;;20.44;62.95;94274.59;5127012;27;20026;-83
2023/06/04 07:20:44;;;;;;;9.73;3.78;;;;;;;20.56;62.40;94268.97;5126658;27;20027;-83
2023/06/04 07:23:09;;;;;;;8.77;4.10;;;;;;;20.75;62.07;94267.31;5145088;27;20053;-84
2023/06/04 07:25:35;;;;;;;7.95;4.32;;;;;;;20.79;61.69;94274.31;5145278;27;20023;-85
2023/06/04 07:28:03;;;;;;;8.18;5.07;;;;;;;20.82;61.72;94275.50;5145197;27;20099;-85
2023/06/04 07:30:30;;;;;;;7.97;4.88;;;;;;;20.81;61.71;94276.66;5126687;27;20027;-85
2023/06/04 07:32:56;;;;;;;6.25;4.07;;;;;;;20.91;61.93;94280.66;5126666;27;20019;-84
2023/06/04 07:35:21;;;;;;;9.10;4.35;;;;;;;20.99;61.52;94277.66;5145150;27;20084;-89
2023/06/04 07:37:49;;;;;;;8.45;4.90;;;;;;;21.03;60.70;94283.91;5145533;27;20114;-88
2023/06/04 07:40:16;;;;;;;13.20;4.90;;;;;;;21.08;60.23;94279.31;5145598;27;20194;-88
2023/06/04 07:42:42;;;;;;;10.02;4.85;;;;;;;21.21;60.29;94278.69;5126712;27;20019;-77
2023/06/04 07:45:08;;;;;;;12.52;5.10;;;;;;;21.27;60.36;94287.28;5144854;27;20321;-77
2023/06/04 07:47:36;;;;;;;15.63;5.82;;;;;;;21.41;60.55;94297.47;5126816;27;20018;-77
2023/06/04 07:50:02;;;;;;;11.85;5.55;;;;;;;21.54;60.05;94295.34;5144868;27;20015;-78
2023/06/04 07:52:28;;;;;;;15.82;6.43;;;;;;;21.77;59.25;94301.34;5144823;27;20019;-78
2023/06/04 07:54:53;;;;;;;11.48;5.88;;;;;;;21.95;57.96;94292.63;5144689;27;20015;-78
2023/06/04 08:00:39;;;;;;;16.40;5.60;;;;;;;22.13;58.73;94309.81;5126702;27;20260;-77
2023/06/04 08:03:05;;;;;;;13.30;6.00;;;;;;;22.26;58.57;94302.19;5144601;27;20038;-78
2023/06/04 08:05:31;;;;;;;17.05;6.15;;;;;;;22.36;57.33;94306.13;5144624;27;20086;-78
2023/06/04 08:07:56;;;;;;;16.05;5.90;;;;;;;22.43;58.04;94298.81;5144251;27;20400;-78
2023/06/04 08:10:22;;;;;;;11.00;5.88;;;;;;;22.54;57.71;94308.97;5144270;27;20011;-78
2023/06/04 08:12:47;;;;;;;11.88;6.95;;;;;;;22.70;56.40;94300.53;5125786;27;20015;-78
2023/06/04 08:15:12;;;;;;;11.48;6.80;;;;;;;22.78;55.98;94302.91;5143150;27;20019;-76
2023/06/04 08:17:38;;;;;;;18.98;7.15;;;;;;;22.86;54.87;94292.06;5124067;27;20019;-78
2023/06/04 08:20:06;;;;;;;11.68;7.57;;;;;;;22.98;54.89;94306.13;5124263;27;20023;-78
2023/06/04 08:22:32;;;;;;;13.07;6.90;;;;;;;23.02;55.05;94298.03;5142654;27;20051;-77
2023/06/04 08:24:57;;;;;;;13.27;8.10;;;;;;;23.13;54.31;94298.84;5144185;27;20255;-77
2023/06/04 08:27:23;;;;;;;25.63;7.32;;;;;;;23.17;53.35;94307.78;5144092;27;20215;-77
2023/06/04 08:29:48;;;;;;;13.90;7.93;;;;;;;23.17;53.09;94309.72;5144133;27;20011;-78
2023/06/04 08:32:16;;;;;;;12.68;8.15;;;;;;;23.19;52.98;94302.75;5143994;27;20031;-77
2023/06/04 08:34:41;;;;;;;15.23;7.93;;;;;;;23.28;52.74;94299.66;5144038;27;20022;-77
2023/06/04 08:37:07;;;;;;;13.15;7.63;;;;;;;23.32;52.71;94307.84;5143992;27;20324;-77
2023/06/04 08:39:33;;;;;;;21.10;8.73;;;;;;;23.32;51.93;94311.31;5143880;27;20023;-78
2023/06/04 08:42:07;;;;;;;13.38;8.07;;;;;;;23.36;51.78;94316.78;5143843;27;20023;-78
2023/06/04 08:44:33;;;;;;;22.08;8.98;;;;;;;23.35;51.12;94321.44;5143974;27;20046;-78
2023/06/04 08:47:03;;;;;;;13.02;7.95;;;;;;;23.27;51.10;94317.16;5142991;27;20023;-77
2023/06/04 08:49:35;;;;;;;11.52;7.47;;;;;;;23.03;52.25;94324.81;5143731;27;20045;-78
2023/06/04 08:52:00;;;;;;;16.10;7.25;;;;;;;22.87;53.12;94321.59;5143979;27;20019;-80
2023/06/04 08:54:26;;;;;;;17.35;6.88;;;;;;;22.81;53.27;94332.03;5143976;27;20322;-77
2023/06/04 08:56:52;;;;;;;12.52;6.97;;;;;;;22.68;53.49;94321.88;5143758;27;20035;-77
2023/06/04 08:59:17;;;;;;;18.23;8.68;;;;;;;22.58;53.87;94328.81;5143478;28;20019;-76
2023/06/04 09:01:44;;;;;;;13.02;7.32;;;;;;;22.64;53.97;94328.06;5143784;28;20225;-76
2023/06/04 09:04:11;;;;;;;14.05;6.60;;;;;;;22.64;53.23;94333.50;5143595;28;20031;-77
2023/06/04 09:06:39;;;;;;;13.98;5.82;;;;;;;22.70;53.33;94335.88;5143559;28;20023;-77
2023/06/04 09:09:09;;;;;;;11.70;6.57;;;;;;;22.73;52.79;94335.09;5143832;28;20022;-76
2023/06/04 09:11:44;;;;;;;12.73;6.47;;;;;;;22.67;53.52;94337.38;5125309;28;20129;-77
2023/06/04 09:14:13;;;;;;;17.15;7.03;;;;;;;22.68;52.97;94338.97;5143642;28;20128;-76
2023/06/04 09:16:50;;;;;;;16.85;5.93;;;;;;;22.78;52.19;94334.75;5125364;28;20027;-77
2023/06/04 09:19:17;;;;;;;14.75;6.50;;;;;;;22.78;53.37;94342.91;5143547;28;20352;-76
2023/06/04 09:21:56;;;;;;;12.27;6.05;;;;;;;22.88;52.83;94342.19;5143615;28;20037;-77
2023/06/04 09:24:38;;;;;;;11.48;6.85;;;;;;;23.05;51.63;94338.03;5145809;27;20035;-77
2023/06/04 09:27:12;;;;;;;11.68;7.00;;;;;;;23.10;50.63;94337.66;5147666;27;20194;-77
2023/06/04 09:29:38;;;;;;;18.17;7.43;;;;;;;23.21;51.29;94343.16;5147687;27;20019;-77
2023/06/04 09:32:04;;;;;;;11.25;6.70;;;;;;;23.37;50.46;94335.44;5147664;27;20087;-77
2023/06/04 09:34:30;;;;;;;13.02;5.70;;;;;;;23.52;49.49;94336.25;5147378;27;20308;-77
2023/06/04 09:36:57;;;;;;;11.18;5.97;;;;;;;23.60;50.24;94337.84;5147509;27;20034;-77
2023/06/04 09:39:23;;;;;;;9.63;6.13;;;;;;;23.73;49.28;94338.28;5147538;27;20064;-76
2023/06/04 09:42:00;;;;;;;17.40;6.45;;;;;;;23.79;49.42;94339.50;5147562;27;20225;-77
2023/06/04 09:44:25;;;;;;;12.00;6.13;;;;;;;23.90;49.35;94333.28;5147308;27;20027;-77
2023/06/04 09:46:55;;;;;;;9.88;5.82;;;;;;;23.80;49.37;94334.81;5147513;27;20158;-76
2023/06/04 09:49:21;;;;;;;13.38;6.32;;;;;;;23.95;49.08;94330.16;5147495;27;20026;-77
2023/06/04 09:51:48;;;;;;;14.95;6.43;;;;;;;24.11;49.02;94333.28;5147482;27;20023;-77
2023/06/04 09:54:13;;;;;;;10.40;6.53;;;;;;;24.14;48.93;94321.63;5129009;27;20042;-77
2023/06/04 09:56:42;;;;;;;11.15;6.47;;;;;;;24.27;48.88;94324.75;5147141;27;20019;-77
2023/06/04 09:59:12;;;;;;;13.32;6.63;;;;;;;24.27;49.30;94329.41;5147338;27;20090;-77
2023/06/04 10:01:41;;;;;;;14.73;7.40;;;;;;;24.26;48.81;94319.69;5146935;27;20095;-78
2023/06/04 10:04:08;;;;;;;8.65;6.72;;;;;;;24.18;48.28;94327.06;5147056;27;20087;-77
2023/06/04 10:06:35;;;;;;;12.82;6.88;;;;;;;24.00;48.88;94327.84;5147048;27;20347;-78
2023/06/04 10:09:07;;;;;;;21.15;7.05;;;;;;;24.05;49.24;94329.41;5147133;27;20016;-79
2023/06/04 10:11:41;;;;;;;11.80;7.75;;;;;;;24.17;48.77;94317.34;5147374;27;20019;-78
2023/06/04 10:14:26;;;;;;;11.25;6.97;;;;;;;24.22;49.80;94319.66;5146816;27;20024;-78
2023/06/04 10:16:53;;;;;;;14.88;7.30;;;;;;;24.20;48.63;94314.63;5146657;27;20034;-78
2023/06/04 10:19:20;;;;;;;13.63;8.20;;;;;;;24.16;47.94;94313.84;5146680;27;20031;-78
2023/06/04 10:21:45;;;;;;;15.60;7.90;;;;;;;24.03;47.86;94323.56;5146611;27;20281;-78
2023/06/04 10:24:12;;;;;;;18.77;7.15;;;;;;;24.04;48.08;94316.97;5146296;27;20063;-78
2023/06/04 10:26:40;;;;;;;14.25;7.00;;;;;;;24.01;48.84;94323.94;5146511;27;20034;-78
2023/06/04 10:29:06;;;;;;;11.60;6.75;;;;;;;23.99;48.97;94317.34;5146735;27;20019;-78
2023/06/04 10:31:32;;;;;;;15.05;7.13;;;;;;;23.92;49.04;94322.78;5146688;27;20259;-78
2023/06/04 10:33:58;;;;;;;17.00;8.45;;;;;;;23.90;48.20;94333.28;5146316;27;20023;-79
2023/06/04 10:36:25;;;;;;;27.02;7.65;;;;;;;23.84;48.31;94330.16;5146434;27;20034;-79
2023/06/04 10:38:55;;;;;;;12.25;6.97;;;;;;;23.79;48.12;94322.34;5146327;27;20034;-78
2023/06/04 10:41:21;;;;;;;11.23;7.22;;;;;;;23.65;48.55;94336.72;5146206;27;20018;-77
2023/06/04 10:43:52;;;;;;;10.80;7.15;;;;;;;23.53;49.27;94328.88;5146291;27;20065;-79
2023/06/04 10:46:19;;;;;;;11.15;5.78;;;;;;;23.50;49.17;94327.72;5146315;27;20027;-77
2023/06/04 10:48:49;;;;;;;12.00;6.57;;;;;;;23.41;49.43;94324.59;5145919;27;20064;-78
2023/06/04 10:51:15;;;;;;;10.25;5.75;;;;;;;23.25;50.03;94333.06;5145595;27;20288;-78
2023/06/04 10:53:41;;;;;;;15.02;6.88;;;;;;;23.07;50.25;94326.78;5145894;27;20022;-77
2023/06/04 10:56:09;;;;;;;12.45;7.80;;;;;;;22.97;50.11;94329.00;5146142;27;20259;-78
2023/06/04 10:58:38;;;;;;;13.73;7.35;;;;;;;22.91;50.52;94327.81;5146093;27;20310;-78
2023/06/04 11:01:04;;;;;;;17.10;6.88;;;;;;;22.87;49.84;94324.31;5146092;27;20019;-78
2023/06/04 11:03:36;;;;;;;15.80;8.73;;;;;;;22.80;50.00;94327.78;5145578;27;20019;-77
2023/06/04 11:06:02;;;;;;;13.40;8.07;;;;;;;22.83;51.22;94324.28;5146036;27;20018;-77
2023/06/04 11:08:30;;;;;;;11.38;6.70;;;;;;;22.86;50.84;94322.75;5127463;27;20192;-77
2023/06/04 11:10:55;;;;;;;17.35;9.57;;;;;;;22.87;50.78;94324.31;5145735;27;20114;-78
2023/06/04 11:13:25;;;;;;;16.02;7.63;;;;;;;22.86;51.39;94324.69;5127256;27;20064;-78
2023/06/04 11:15:51;;;;;;;12.15;5.70;;;;;;;22.91;51.21;94319.66;5145490;27;20075;-78
2023/06/04 11:18:20;;;;;;;8.65;5.25;;;;;;;22.97;51.43;94323.59;5145509;27;20019;-77
2023/06/04 11:21:04;;;;;;;12.57;5.97;;;;;;;23.00;51.15;94322.84;5145242;27;20015;-78
2023/06/04 11:23:33;;;;;;;13.02;8.40;;;;;;;23.10;50.70;94326.00;5143815;27;20080;-83
2023/06/04 11:26:01;;;;;;;14.48;6.72;;;;;;;23.12;51.93;94326.41;5144358;27;20034;-86
2023/06/04 11:28:30;;;;;;;12.23;6.97;;;;;;;23.23;50.91;94324.50;5145283;27;20315;-84
2023/06/04 11:30:57;;;;;;;10.68;6.53;;;;;;;23.26;50.92;94326.44;5144577;27;20035;-84